sensor_id;sensor_type;location;lat;lon;timestamp;pressure;altitude;pressure_sealevel;temperature;humidity
7668;BME280;3876;42.204;24.686;2024-02-23T00:01:43;99362.50;;;7.26;88.12
7668;BME280;3876;42.204;24.686;2024-02-23T00:04:10;99373.59;;;7.22;87.70
7668;BME280;3876;42.204;24.686;2024-02-23T00:06:38;99360.97;;;7.16;87.76
7668;BME280;3876;42.204;24.686;2024-02-23T00:09:05;99366.06;;;7.16;87.99
7668;BME280;3876;42.204;24.686;2024-02-23T00:11:31;99361.03;;;7.13;88.13
7668;BME280;3876;42.204;24.686;2024-02-23T00:13:59;99357.63;;;7.11;88.44
7668;BME280;3876;42.204;24.686;2024-02-23T00:16:26;99359.38;;;7.09;88.72
7668;BME280;3876;42.204;24.686;2024-02-23T00:18:54;99358.59;;;7.06;88.56
7668;BME280;3876;42.204;24.686;2024-02-23T00:21:21;99357.78;;;7.02;88.72
7668;BME280;3876;42.204;24.686;2024-02-23T00:23:49;99360.41;;;6.99;89.35
7668;BME280;3876;42.204;24.686;2024-02-23T00:26:15;99364.69;;;6.97;89.11
7668;BME280;3876;42.204;24.686;2024-02-23T00:28:42;99356.22;;;6.95;89.41
7668;BME280;3876;42.204;24.686;2024-02-23T00:31:09;99356.31;;;6.89;89.12
7668;BME280;3876;42.204;24.686;2024-02-23T00:33:35;99347.00;;;6.88;89.23
7668;BME280;3876;42.204;24.686;2024-02-23T00:36:03;99354.66;;;6.86;89.66
7668;BME280;3876;42.204;24.686;2024-02-23T00:38:30;99326.84;;;6.74;89.78
7668;BME280;3876;42.204;24.686;2024-02-23T00:40:58;99337.78;;;6.81;90.20
7668;BME280;3876;42.204;24.686;2024-02-23T00:43:25;99342.88;;;6.81;90.37
7668;BME280;3876;42.204;24.686;2024-02-23T00:45:54;99342.88;;;6.79;90.56
7668;BME280;3876;42.204;24.686;2024-02-23T00:48:21;99342.09;;;6.76;90.13
7668;BME280;3876;42.204;24.686;2024-02-23T00:50:47;99346.38;;;6.74;90.35
7668;BME280;3876;42.204;24.686;2024-02-23T00:53:14;99334.53;;;6.70;90.05
7668;BME280;3876;42.204;24.686;2024-02-23T00:55:43;99343.03;;;6.69;89.87
7668;BME280;3876;42.204;24.686;2024-02-23T00:58:11;99327.94;;;6.57;89.83
7668;BME280;3876;42.204;24.686;2024-02-23T01:00:37;99329.59;;;6.61;89.87
7668;BME280;3876;42.204;24.686;2024-02-23T01:03:04;99331.34;;;6.59;90.06
7668;BME280;3876;42.204;24.686;2024-02-23T01:05:31;99333.03;;;6.58;90.10
7668;BME280;3876;42.204;24.686;2024-02-23T01:07:58;99344.06;;;6.57;89.86
7668;BME280;3876;42.204;24.686;2024-02-23T01:10:24;99340.78;;;6.51;90.45
7668;BME280;3876;42.204;24.686;2024-02-23T01:12:52;99340.06;;;6.43;90.77
7668;BME280;3876;42.204;24.686;2024-02-23T01:15:20;99327.38;;;6.38;90.81
7668;BME280;3876;42.204;24.686;2024-02-23T01:54:47;99295.00;;;5.85;93.93
7668;BME280;3876;42.204;24.686;2024-02-23T01:57:14;99300.13;;;5.82;93.74
7668;BME280;3876;42.204;24.686;2024-02-23T01:59:42;99290.84;;;5.81;93.60
7668;BME280;3876;42.204;24.686;2024-02-23T02:02:08;99286.69;;;5.72;93.95
7668;BME280;3876;42.204;24.686;2024-02-23T02:04:35;99298.56;;;5.72;93.58
7668;BME280;3876;42.204;24.686;2024-02-23T02:07:02;99295.31;;;5.61;93.84
7668;BME280;3876;42.204;24.686;2024-02-23T02:09:29;99295.31;;;5.61;93.67
7668;BME280;3876;42.204;24.686;2024-02-23T02:11:57;99296.25;;;5.55;94.06
7668;BME280;3876;42.204;24.686;2024-02-23T02:14:24;99273.47;;;5.45;94.13
7668;BME280;3876;42.204;24.686;2024-02-23T02:16:51;99296.28;;;5.52;93.44
7668;BME280;3876;42.204;24.686;2024-02-23T02:19:18;99297.13;;;5.50;93.74
7668;BME280;3876;42.204;24.686;2024-02-23T02:21:44;99300.59;;;5.46;94.18
7668;BME280;3876;42.204;24.686;2024-02-23T02:24:11;99303.97;;;5.45;94.00
7668;BME280;3876;42.204;24.686;2024-02-23T02:26:38;99309.06;;;5.43;94.38
7668;BME280;3876;42.204;24.686;2024-02-23T02:29:06;99307.41;;;5.41;93.90
7668;BME280;3876;42.204;24.686;2024-02-23T02:31:33;99308.38;;;5.29;94.44
7668;BME280;3876;42.204;24.686;2024-02-23T02:34:03;99306.69;;;5.28;95.08
7668;BME280;3876;42.204;24.686;2024-02-23T02:36:30;99303.38;;;5.21;95.59
7668;BME280;3876;42.204;24.686;2024-02-23T02:38:56;99302.69;;;5.04;96.79
7668;BME280;3876;42.204;24.686;2024-02-23T02:41:24;99280.78;;;4.97;97.06
7668;BME280;3876;42.204;24.686;2024-02-23T02:43:54;99294.22;;;5.05;97.07
7668;BME280;3876;42.204;24.686;2024-02-23T02:46:22;99292.53;;;5.04;97.05
7668;BME280;3876;42.204;24.686;2024-02-23T02:48:49;99291.78;;;4.96;97.53
7668;BME280;3876;42.204;24.686;2024-02-23T02:51:16;99306.97;;;5.04;97.73
7668;BME280;3876;42.204;24.686;2024-02-23T02:53:42;99304.44;;;5.01;97.55
7668;BME280;3876;42.204;24.686;2024-02-23T02:56:09;99307.97;;;4.83;97.65
7668;BME280;3876;42.204;24.686;2024-02-23T02:58:36;99317.25;;;4.87;97.42
7668;BME280;3876;42.204;24.686;2024-02-23T03:01:03;99309.66;;;4.87;97.13
7668;BME280;3876;42.204;24.686;2024-02-23T03:03:31;99288.63;;;4.70;97.30
7668;BME280;3876;42.204;24.686;2024-02-23T03:05:58;99303.72;;;4.85;97.44
7668;BME280;3876;42.204;24.686;2024-02-23T03:08:24;99306.25;;;4.87;97.11
7668;BME280;3876;42.204;24.686;2024-02-23T03:10:51;99307.19;;;4.76;97.91
7668;BME280;3876;42.204;24.686;2024-02-23T03:13:18;99296.19;;;4.76;98.33
7668;BME280;3876;42.204;24.686;2024-02-23T03:15:45;99304.66;;;4.75;97.99
7668;BME280;3876;42.204;24.686;2024-02-23T03:18:11;99302.16;;;4.70;98.47
7668;BME280;3876;42.204;24.686;2024-02-23T03:20:41;99305.56;;;4.69;98.65
7668;BME280;3876;42.204;24.686;2024-02-23T03:23:08;99308.09;;;4.71;98.77
7668;BME280;3876;42.204;24.686;2024-02-23T03:25:35;99288.69;;;4.59;99.30
7668;BME280;3876;42.204;24.686;2024-02-23T03:28:01;99305.56;;;4.66;99.28
7668;BME280;3876;42.204;24.686;2024-02-23T03:30:28;99314.81;;;4.75;99.52
7668;BME280;3876;42.204;24.686;2024-02-23T03:32:55;99313.16;;;4.71;98.86
7668;BME280;3876;42.204;24.686;2024-02-23T03:35:22;99318.25;;;4.71;99.27
7668;BME280;3876;42.204;24.686;2024-02-23T03:37:50;99313.19;;;4.68;99.32
7668;BME280;3876;42.204;24.686;2024-02-23T03:40:16;99320.00;;;4.63;99.80
7668;BME280;3876;42.204;24.686;2024-02-23T03:42:44;99322.56;;;4.60;100.00
7668;BME280;3876;42.204;24.686;2024-02-23T03:45:11;99314.13;;;4.58;99.97
7668;BME280;3876;42.204;24.686;2024-02-23T03:47:38;99321.78;;;4.52;100.00
7668;BME280;3876;42.204;24.686;2024-02-23T03:50:06;99321.81;;;4.46;100.00
7668;BME280;3876;42.204;24.686;2024-02-23T03:52:32;99308.25;;;4.47;100.00
7668;BME280;3876;42.204;24.686;2024-02-23T03:55:00;99308.25;;;4.48;100.00
7668;BME280;3876;42.204;24.686;2024-02-23T03:57:29;99306.59;;;4.46;100.00
7668;BME280;3876;42.204;24.686;2024-02-23T03:59:55;99299.81;;;4.48;100.00
7668;BME280;3876;42.204;24.686;2024-02-23T04:02:22;99309.16;;;4.41;100.00
7668;BME280;3876;42.204;24.686;2024-02-23T04:04:49;99308.28;;;4.45;100.00
7668;BME280;3876;42.204;24.686;2024-02-23T04:07:16;99307.41;;;4.46;100.00
7668;BME280;3876;42.204;24.686;2024-02-23T04:09:42;99315.03;;;4.48;100.00
7668;BME280;3876;42.204;24.686;2024-02-23T04:12:10;99317.63;;;4.40;99.89
7668;BME280;3876;42.204;24.686;2024-02-23T04:14:37;99301.63;;;4.28;99.06
7668;BME280;3876;42.204;24.686;2024-02-23T04:17:05;99317.69;;;4.33;99.38
7668;BME280;3876;42.204;24.686;2024-02-23T04:19:32;99316.00;;;4.27;99.45
7668;BME280;3876;42.204;24.686;2024-02-23T04:21:59;99316.09;;;4.15;98.66
7668;BME280;3876;42.204;24.686;2024-02-23T04:24:25;99302.59;;;4.10;98.97
7668;BME280;3876;42.204;24.686;2024-02-23T04:26:52;99313.59;;;4.07;99.11
7668;BME280;3876;42.204;24.686;2024-02-23T04:29:19;99308.53;;;4.04;98.85
7668;BME280;3876;42.204;24.686;2024-02-23T04:31:46;99311.94;;;3.99;98.81
7668;BME280;3876;42.204;24.686;2024-02-23T04:34:14;99313.66;;;3.95;99.16
7668;BME280;3876;42.204;24.686;2024-02-23T04:36:42;99319.63;;;3.90;99.64
7668;BME280;3876;42.204;24.686;2024-02-23T04:39:09;99320.47;;;3.90;100.00
7668;BME280;3876;42.204;24.686;2024-02-23T04:41:36;99320.47;;;3.87;100.00
7668;BME280;3876;42.204;24.686;2024-02-23T04:44:03;99298.53;;;3.77;100.00
7668;BME280;3876;42.204;24.686;2024-02-23T04:46:30;99323.84;;;3.86;99.97
7668;BME280;3876;42.204;24.686;2024-02-23T04:48:57;99325.53;;;3.87;100.00
7668;BME280;3876;42.204;24.686;2024-02-23T04:51:24;99306.13;;;3.79;100.00
7668;BME280;3876;42.204;24.686;2024-02-23T04:53:50;99318.81;;;3.80;100.00
7668;BME280;3876;42.204;24.686;2024-02-23T04:56:17;99314.56;;;3.84;100.00
7668;BME280;3876;42.204;24.686;2024-02-23T04:58:44;99312.03;;;3.82;100.00
7668;BME280;3876;42.204;24.686;2024-02-23T05:01:11;99324.72;;;3.82;100.00
7668;BME280;3876;42.204;24.686;2024-02-23T05:03:39;99319.66;;;3.81;100.00
7668;BME280;3876;42.204;24.686;2024-02-23T05:06:06;99324.78;;;3.64;100.00
7668;BME280;3876;42.204;24.686;2024-02-23T05:08:32;99331.53;;;3.63;100.00
7668;BME280;3876;42.204;24.686;2024-02-23T05:10:59;99320.56;;;3.63;100.00
7668;BME280;3876;42.204;24.686;2024-02-23T05:13:26;99332.41;;;3.61;100.00
7668;BME280;3876;42.204;24.686;2024-02-23T05:15:55;99316.41;;;3.48;100.00
7668;BME280;3876;42.204;24.686;2024-02-23T05:18:22;99323.94;;;3.59;100.00
7668;BME280;3876;42.204;24.686;2024-02-23T05:20:50;99329.88;;;3.61;100.00
7668;BME280;3876;42.204;24.686;2024-02-23T05:23:17;99323.09;;;3.60;100.00
7668;BME280;3876;42.204;24.686;2024-02-23T05:25:43;99339.16;;;3.59;100.00
7668;BME280;3876;42.204;24.686;2024-02-23T05:28:10;99337.50;;;3.58;100.00
7668;BME280;3876;42.204;24.686;2024-02-23T05:30:37;99334.97;;;3.53;100.00
7668;BME280;3876;42.204;24.686;2024-02-23T05:33:04;99341.69;;;3.59;100.00
7668;BME280;3876;42.204;24.686;2024-02-23T05:35:30;99339.16;;;3.56;100.00
7668;BME280;3876;42.204;24.686;2024-02-23T05:37:58;99348.47;;;3.58;100.00
7668;BME280;3876;42.204;24.686;2024-02-23T05:40:25;99351.84;;;3.60;100.00
7668;BME280;3876;42.204;24.686;2024-02-23T05:42:53;99352.69;;;3.61;100.00
7668;BME280;3876;42.204;24.686;2024-02-23T05:45:20;99343.38;;;3.60;100.00
7668;BME280;3876;42.204;24.686;2024-02-23T05:47:47;99352.69;;;3.59;100.00
7668;BME280;3876;42.204;24.686;2024-02-23T05:50:14;99358.59;;;3.63;100.00
7668;BME280;3876;42.204;24.686;2024-02-23T05:52:41;99354.38;;;3.65;100.00
7668;BME280;3876;42.204;24.686;2024-02-23T05:55:09;99350.97;;;3.66;100.00
7668;BME280;3876;42.204;24.686;2024-02-23T05:57:36;99361.09;;;3.66;100.00
7668;BME280;3876;42.204;24.686;2024-02-23T06:00:03;99356.91;;;3.68;100.00
7668;BME280;3876;42.204;24.686;2024-02-23T06:02:30;99364.47;;;3.71;100.00
7668;BME280;3876;42.204;24.686;2024-02-23T06:04:57;99363.63;;;3.77;100.00
7668;BME280;3876;42.204;24.686;2024-02-23T06:07:24;99370.38;;;3.81;100.00
7668;BME280;3876;42.204;24.686;2024-02-23T06:09:54;99371.19;;;3.87;100.00
7668;BME280;3876;42.204;24.686;2024-02-23T06:12:22;99377.09;;;3.94;100.00
7668;BME280;3876;42.204;24.686;2024-02-23T06:14:50;99386.34;;;4.02;100.00
7668;BME280;3876;42.204;24.686;2024-02-23T06:17:17;99381.22;;;4.08;100.00
7668;BME280;3876;42.204;24.686;2024-02-23T06:19:44;99367.72;;;4.06;100.00
7668;BME280;3876;42.204;24.686;2024-02-23T06:22:10;99376.09;;;4.17;100.00
7668;BME280;3876;42.204;24.686;2024-02-23T06:24:37;99385.38;;;4.29;100.00
7668;BME280;3876;42.204;24.686;2024-02-23T06:27:04;99379.44;;;4.32;100.00
7668;BME280;3876;42.204;24.686;2024-02-23T06:29:32;99385.34;;;4.35;100.00
7668;BME280;3876;42.204;24.686;2024-02-23T06:31:59;99387.84;;;4.37;100.00
7668;BME280;3876;42.204;24.686;2024-02-23T06:34:28;99387.81;;;4.46;100.00
7668;BME280;3876;42.204;24.686;2024-02-23T06:36:55;99397.91;;;4.50;100.00
7668;BME280;3876;42.204;24.686;2024-02-23T06:39:21;99392.00;;;4.50;100.00
7668;BME280;3876;42.204;24.686;2024-02-23T06:41:51;99395.28;;;4.67;100.00
7668;BME280;3876;42.204;24.686;2024-02-23T06:44:17;99389.34;;;4.71;100.00
7668;BME280;3876;42.204;24.686;2024-02-23T06:46:45;99390.91;;;4.87;100.00
7668;BME280;3876;42.204;24.686;2024-02-23T06:49:12;99386.66;;;4.91;100.00
7668;BME280;3876;42.204;24.686;2024-02-23T06:51:39;99385.63;;;5.11;100.00
7668;BME280;3876;42.204;24.686;2024-02-23T06:54:06;99394.81;;;5.29;100.00
7668;BME280;3876;42.204;24.686;2024-02-23T06:56:33;99391.34;;;5.36;100.00
7668;BME280;3876;42.204;24.686;2024-02-23T06:59:00;99384.50;;;5.41;100.00
7668;BME280;3876;42.204;24.686;2024-02-23T07:01:27;99393.78;;;5.44;100.00
7668;BME280;3876;42.204;24.686;2024-02-23T07:03:55;99397.16;;;5.49;100.00
7668;BME280;3876;42.204;24.686;2024-02-23T07:06:21;99398.00;;;5.49;100.00
7668;BME280;3876;42.204;24.686;2024-02-23T07:08:48;99396.28;;;5.51;100.00
7668;BME280;3876;42.204;24.686;2024-02-23T07:11:15;99399.56;;;5.61;100.00
7668;BME280;3876;42.204;24.686;2024-02-23T07:13:42;99403.69;;;5.71;100.00
7668;BME280;3876;42.204;24.686;2024-02-23T07:16:09;99395.13;;;5.81;100.00
7668;BME280;3876;42.204;24.686;2024-02-23T07:18:36;99394.19;;;5.85;100.00
7668;BME280;3876;42.204;24.686;2024-02-23T07:21:04;99390.72;;;5.97;100.00
7668;BME280;3876;42.204;24.686;2024-02-23T07:23:31;99388.94;;;6.03;100.00
7668;BME280;3876;42.204;24.686;2024-02-23T07:25:57;99377.84;;;6.10;100.00
7668;BME280;3876;42.204;24.686;2024-02-23T07:28:24;99384.47;;;6.23;100.00
7668;BME280;3876;42.204;24.686;2024-02-23T07:30:51;99387.66;;;6.38;100.00
7668;BME280;3876;42.204;24.686;2024-02-23T07:33:18;99378.00;;;6.61;100.00
7668;BME280;3876;42.204;24.686;2024-02-23T07:35:45;99368.44;;;6.75;100.00
7668;BME280;3876;42.204;24.686;2024-02-23T07:38:13;99378.25;;;6.99;100.00
7668;BME280;3876;42.204;24.686;2024-02-23T07:40:39;99382.22;;;7.17;100.00
7668;BME280;3876;42.204;24.686;2024-02-23T07:43:06;99381.69;;;7.46;100.00
7668;BME280;3876;42.204;24.686;2024-02-23T07:45:34;99383.06;;;7.63;100.00
7668;BME280;3876;42.204;24.686;2024-02-23T07:48:01;99366.69;;;7.75;100.00
7668;BME280;3876;42.204;24.686;2024-02-23T07:50:27;99357.81;;;7.94;100.00
7668;BME280;3876;42.204;24.686;2024-02-23T07:52:54;99366.63;;;8.19;100.00
7668;BME280;3876;42.204;24.686;2024-02-23T07:55:22;99366.94;;;8.46;100.00
7668;BME280;3876;42.204;24.686;2024-02-23T07:57:49;99375.03;;;8.64;100.00
7668;BME280;3876;42.204;24.686;2024-02-23T08:00:16;99370.31;;;8.83;100.00
7668;BME280;3876;42.204;24.686;2024-02-23T08:02:43;99377.50;;;9.04;97.43
7668;BME280;3876;42.204;24.686;2024-02-23T08:05:10;99373.38;;;9.32;96.86
7668;BME280;3876;42.204;24.686;2024-02-23T08:07:36;99384.56;;;9.61;96.05
7668;BME280;3876;42.204;24.686;2024-02-23T08:10:03;99378.88;;;9.82;94.25
7668;BME280;3876;42.204;24.686;2024-02-23T08:12:32;99378.34;;;10.00;93.13
7668;BME280;3876;42.204;24.686;2024-02-23T08:14:58;99383.44;;;10.32;92.12
7668;BME280;3876;42.204;24.686;2024-02-23T08:17:25;99381.72;;;10.61;90.71
7668;BME280;3876;42.204;24.686;2024-02-23T08:19:52;99381.91;;;10.82;90.07
7668;BME280;3876;42.204;24.686;2024-02-23T08:22:18;99382.06;;;11.04;88.10
7668;BME280;3876;42.204;24.686;2024-02-23T08:24:45;99371.28;;;11.19;88.28
7668;BME280;3876;42.204;24.686;2024-02-23T08:27:12;99377.25;;;11.44;86.59
7668;BME280;3876;42.204;24.686;2024-02-23T08:29:40;99373.97;;;11.66;85.47
7668;BME280;3876;42.204;24.686;2024-02-23T08:32:07;99366.94;;;11.72;83.82
7668;BME280;3876;42.204;24.686;2024-02-23T08:34:34;99367.00;;;11.94;83.53
7668;BME280;3876;42.204;24.686;2024-02-23T08:37:01;99366.16;;;11.93;82.63
7668;BME280;3876;42.204;24.686;2024-02-23T08:39:28;99363.19;;;12.04;82.66
7668;BME280;3876;42.204;24.686;2024-02-23T08:41:54;99366.44;;;12.09;84.16
7668;BME280;3876;42.204;24.686;2024-02-23T08:44:21;99364.44;;;12.17;83.35
7668;BME280;3876;42.204;24.686;2024-02-23T08:46:49;99363.97;;;12.29;82.37
7668;BME280;3876;42.204;24.686;2024-02-23T08:49:16;99352.00;;;12.28;83.59
7668;BME280;3876;42.204;24.686;2024-02-23T08:51:43;99357.19;;;12.50;83.28
7668;BME280;3876;42.204;24.686;2024-02-23T08:54:09;99358.38;;;12.63;81.68
7668;BME280;3876;42.204;24.686;2024-02-23T08:56:39;99360.38;;;12.77;81.82
7668;BME280;3876;42.204;24.686;2024-02-23T08:59:07;99363.00;;;12.97;81.09
7668;BME280;3876;42.204;24.686;2024-02-23T09:01:34;99364.69;;;12.98;79.69
7668;BME280;3876;42.204;24.686;2024-02-23T09:04:03;99369.59;;;13.04;79.81
7668;BME280;3876;42.204;24.686;2024-02-23T09:06:29;99368.47;;;13.11;80.89
7668;BME280;3876;42.204;24.686;2024-02-23T09:08:56;99354.31;;;13.21;80.68
7668;BME280;3876;42.204;24.686;2024-02-23T09:11:23;99356.78;;;13.24;79.83
7668;BME280;3876;42.204;24.686;2024-02-23T09:13:50;99344.53;;;13.29;78.74
7668;BME280;3876;42.204;24.686;2024-02-23T09:16:16;99357.34;;;13.31;77.64
7668;BME280;3876;42.204;24.686;2024-02-23T09:18:44;99356.56;;;13.49;78.25
7668;BME280;3876;42.204;24.686;2024-02-23T09:21:12;99355.06;;;13.63;77.00
7668;BME280;3876;42.204;24.686;2024-02-23T09:23:39;99345.97;;;13.75;76.71
7668;BME280;3876;42.204;24.686;2024-02-23T09:26:09;99346.47;;;13.83;75.73
7668;BME280;3876;42.204;24.686;2024-02-23T09:28:36;99348.56;;;13.94;75.70
7668;BME280;3876;42.204;24.686;2024-02-23T09:31:03;99340.50;;;13.83;75.71
7668;BME280;3876;42.204;24.686;2024-02-23T09:33:30;99335.50;;;13.98;75.64
7668;BME280;3876;42.204;24.686;2024-02-23T09:35:57;99333.94;;;13.94;75.48
7668;BME280;3876;42.204;24.686;2024-02-23T09:38:25;99329.34;;;14.01;75.87
7668;BME280;3876;42.204;24.686;2024-02-23T09:40:52;99333.66;;;14.00;74.33
7668;BME280;3876;42.204;24.686;2024-02-23T09:43:21;99325.28;;;13.77;74.90
7668;BME280;3876;42.204;24.686;2024-02-23T09:45:50;99319.03;;;13.82;77.50
7668;BME280;3876;42.204;24.686;2024-02-23T09:48:18;99321.47;;;14.04;75.64
7668;BME280;3876;42.204;24.686;2024-02-23T09:50:47;99312.16;;;14.20;75.55
7668;BME280;3876;42.204;24.686;2024-02-23T09:53:14;99314.72;;;14.20;75.02
7668;BME280;3876;42.204;24.686;2024-02-23T09:55:43;99308.13;;;14.33;73.90
7668;BME280;3876;42.204;24.686;2024-02-23T09:58:11;99307.22;;;14.34;74.67
7668;BME280;3876;42.204;24.686;2024-02-23T10:00:39;99306.38;;;14.15;72.83
7668;BME280;3876;42.204;24.686;2024-02-23T10:03:06;99295.34;;;14.30;74.16
7668;BME280;3876;42.204;24.686;2024-02-23T10:05:33;99292.66;;;14.32;73.36
7668;BME280;3876;42.204;24.686;2024-02-23T10:07:59;99295.03;;;14.55;73.29
7668;BME280;3876;42.204;24.686;2024-02-23T10:10:29;99289.19;;;14.51;72.14
7668;BME280;3876;42.204;24.686;2024-02-23T10:12:58;99279.81;;;14.67;74.05
7668;BME280;3876;42.204;24.686;2024-02-23T10:15:25;99283.16;;;14.87;71.88
7668;BME280;3876;42.204;24.686;2024-02-23T10:17:52;99286.94;;;14.97;72.51
7668;BME280;3876;42.204;24.686;2024-02-23T10:20:20;99277.16;;;15.03;72.10
7668;BME280;3876;42.204;24.686;2024-02-23T10:22:47;99277.00;;;15.23;70.86
7668;BME280;3876;42.204;24.686;2024-02-23T10:25:13;99267.75;;;15.35;70.30
7668;BME280;3876;42.204;24.686;2024-02-23T10:27:40;99265.97;;;15.37;68.43
7668;BME280;3876;42.204;24.686;2024-02-23T10:30:10;99268.00;;;15.48;70.27
7668;BME280;3876;42.204;24.686;2024-02-23T10:32:38;99263.66;;;15.48;69.49
7668;BME280;3876;42.204;24.686;2024-02-23T10:35:10;99257.59;;;15.49;67.82
7668;BME280;3876;42.204;24.686;2024-02-23T10:37:37;99262.94;;;15.45;69.27
7668;BME280;3876;42.204;24.686;2024-02-23T10:40:06;99251.78;;;15.61;68.74
7668;BME280;3876;42.204;24.686;2024-02-23T10:42:38;99248.53;;;15.73;68.92
7668;BME280;3876;42.204;24.686;2024-02-23T10:45:06;99245.63;;;15.80;69.18
7668;BME280;3876;42.204;24.686;2024-02-23T10:47:35;99236.38;;;15.75;69.00
7668;BME280;3876;42.204;24.686;2024-02-23T10:50:03;99243.38;;;15.89;67.88
7668;BME280;3876;42.204;24.686;2024-02-23T10:52:30;99242.06;;;15.98;66.61
7668;BME280;3876;42.204;24.686;2024-02-23T10:55:00;99234.28;;;15.98;67.21
7668;BME280;3876;42.204;24.686;2024-02-23T10:57:28;99225.69;;;15.97;66.90
7668;BME280;3876;42.204;24.686;2024-02-23T10:59:55;99230.63;;;16.02;65.72
7668;BME280;3876;42.204;24.686;2024-02-23T11:02:23;99218.03;;;15.96;66.30
7668;BME280;3876;42.204;24.686;2024-02-23T11:04:53;99227.44;;;16.12;67.99
7668;BME280;3876;42.204;24.686;2024-02-23T11:07:22;99197.34;;;15.96;64.29
7668;BME280;3876;42.204;24.686;2024-02-23T11:09:52;99213.53;;;16.15;63.46
7668;BME280;3876;42.204;24.686;2024-02-23T11:12:23;99209.09;;;16.17;65.43
7668;BME280;3876;42.204;24.686;2024-02-23T11:14:50;99205.13;;;16.25;63.87
7668;BME280;3876;42.204;24.686;2024-02-23T11:17:18;99212.97;;;16.40;64.10
7668;BME280;3876;42.204;24.686;2024-02-23T11:19:46;99198.09;;;16.43;63.58
7668;BME280;3876;42.204;24.686;2024-02-23T11:22:23;99199.09;;;16.56;62.78
7668;BME280;3876;42.204;24.686;2024-02-23T11:24:51;99206.75;;;16.58;62.66
7668;BME280;3876;42.204;24.686;2024-02-23T11:27:18;99202.19;;;16.47;62.46
7668;BME280;3876;42.204;24.686;2024-02-23T11:29:46;99202.19;;;16.47;63.97
7668;BME280;3876;42.204;24.686;2024-02-23T11:32:14;99198.28;;;16.40;63.25
7668;BME280;3876;42.204;24.686;2024-02-23T11:34:41;99207.09;;;16.52;63.41
7668;BME280;3876;42.204;24.686;2024-02-23T11:37:10;99199.66;;;16.61;63.54
7668;BME280;3876;42.204;24.686;2024-02-23T11:39:39;99193.59;;;16.76;62.65
7668;BME280;3876;42.204;24.686;2024-02-23T11:42:06;99187.13;;;16.84;62.15
7668;BME280;3876;42.204;24.686;2024-02-23T11:44:33;99192.88;;;16.89;60.71
7668;BME280;3876;42.204;24.686;2024-02-23T11:47:00;99192.50;;;16.95;61.02
7668;BME280;3876;42.204;24.686;2024-02-23T11:49:27;99181.41;;;16.93;60.82
7668;BME280;3876;42.204;24.686;2024-02-23T11:51:55;99177.69;;;16.97;60.06
7668;BME280;3876;42.204;24.686;2024-02-23T11:54:22;99179.00;;;17.04;59.25
7668;BME280;3876;42.204;24.686;2024-02-23T11:56:50;99177.00;;;17.09;59.75
7668;BME280;3876;42.204;24.686;2024-02-23T11:59:18;99165.78;;;17.08;61.17
7668;BME280;3876;42.204;24.686;2024-02-23T12:01:45;99166.34;;;16.99;60.32
7668;BME280;3876;42.204;24.686;2024-02-23T12:04:13;99156.63;;;17.03;61.00
7668;BME280;3876;42.204;24.686;2024-02-23T12:06:41;99169.56;;;17.17;59.42
7668;BME280;3876;42.204;24.686;2024-02-23T12:09:09;99170.31;;;17.19;57.74
7668;BME280;3876;42.204;24.686;2024-02-23T12:11:37;99156.53;;;17.18;57.93
7668;BME280;3876;42.204;24.686;2024-02-23T12:14:05;99154.56;;;17.36;58.55
7668;BME280;3876;42.204;24.686;2024-02-23T12:16:33;99150.31;;;17.35;58.04
7668;BME280;3876;42.204;24.686;2024-02-23T12:19:01;99149.00;;;17.42;59.60
7668;BME280;3876;42.204;24.686;2024-02-23T12:21:28;99153.72;;;17.36;58.16
7668;BME280;3876;42.204;24.686;2024-02-23T12:23:54;99138.09;;;17.37;59.95
7668;BME280;3876;42.204;24.686;2024-02-23T12:26:21;99138.81;;;17.53;58.85
7668;BME280;3876;42.204;24.686;2024-02-23T12:28:48;99138.44;;;17.45;58.25
7668;BME280;3876;42.204;24.686;2024-02-23T12:31:23;99121.81;;;17.35;57.84
7668;BME280;3876;42.204;24.686;2024-02-23T12:33:50;99139.19;;;17.47;57.56
7668;BME280;3876;42.204;24.686;2024-02-23T12:36:19;99129.50;;;17.37;57.21
7668;BME280;3876;42.204;24.686;2024-02-23T12:38:46;99123.22;;;17.26;57.47
7668;BME280;3876;42.204;24.686;2024-02-23T12:41:12;99122.00;;;17.32;57.94
7668;BME280;3876;42.204;24.686;2024-02-23T12:43:39;99126.97;;;17.35;58.98
7668;BME280;3876;42.204;24.686;2024-02-23T12:46:06;99105.84;;;17.28;57.81
7668;BME280;3876;42.204;24.686;2024-02-23T12:48:35;99123.09;;;17.42;56.93
7668;BME280;3876;42.204;24.686;2024-02-23T12:51:02;99127.28;;;17.45;57.70
7668;BME280;3876;42.204;24.686;2024-02-23T12:53:33;99115.31;;;17.56;57.35
7668;BME280;3876;42.204;24.686;2024-02-23T12:56:02;99105.50;;;17.47;57.96
7668;BME280;3876;42.204;24.686;2024-02-23T12:58:29;99110.03;;;17.58;57.16
7668;BME280;3876;42.204;24.686;2024-02-23T13:00:56;99106.63;;;17.57;57.85
7668;BME280;3876;42.204;24.686;2024-02-23T13:03:24;99100.31;;;17.61;56.32
7668;BME280;3876;42.204;24.686;2024-02-23T13:05:53;99100.34;;;17.47;56.34
7668;BME280;3876;42.204;24.686;2024-02-23T13:08:21;99077.88;;;17.33;56.25
7668;BME280;3876;42.204;24.686;2024-02-23T13:10:48;99085.63;;;17.48;55.00
7668;BME280;3876;42.204;24.686;2024-02-23T13:13:15;99080.91;;;17.40;56.04
7668;BME280;3876;42.204;24.686;2024-02-23T13:15:42;99095.16;;;17.47;55.75
7668;BME280;3876;42.204;24.686;2024-02-23T13:18:09;99089.78;;;17.50;56.66
7668;BME280;3876;42.204;24.686;2024-02-23T13:20:36;99092.75;;;17.44;56.56
7668;BME280;3876;42.204;24.686;2024-02-23T13:23:04;99095.97;;;17.48;56.85
7668;BME280;3876;42.204;24.686;2024-02-23T13:25:33;99083.75;;;17.50;57.68
7668;BME280;3876;42.204;24.686;2024-02-23T13:28:00;99080.88;;;17.54;57.84
7668;BME280;3876;42.204;24.686;2024-02-23T13:30:27;99086.22;;;17.51;55.95
7668;BME280;3876;42.204;24.686;2024-02-23T13:32:53;99080.97;;;17.53;56.22
7668;BME280;3876;42.204;24.686;2024-02-23T13:35:20;99075.84;;;17.51;57.53
7668;BME280;3876;42.204;24.686;2024-02-23T13:37:47;99083.84;;;17.62;57.29
7668;BME280;3876;42.204;24.686;2024-02-23T13:40:15;99087.72;;;17.55;56.83
7668;BME280;3876;42.204;24.686;2024-02-23T13:42:42;99081.50;;;17.58;56.06
7668;BME280;3876;42.204;24.686;2024-02-23T13:45:11;99044.94;;;17.48;56.67
7668;BME280;3876;42.204;24.686;2024-02-23T13:47:40;99078.13;;;17.57;55.68
7668;BME280;3876;42.204;24.686;2024-02-23T13:50:09;99083.00;;;17.62;55.79
7668;BME280;3876;42.204;24.686;2024-02-23T13:52:36;99074.94;;;17.66;57.08